sensor_id;sensor_type;location;lat;lon;timestamp;P1;durP1;ratioP1;P2;durP2;ratioP2
37453;SDS011;23315;52.078;4.756;2023-07-31T00:00:24;8.68;;;1.50;;
37453;SDS011;23315;52.078;4.756;2023-07-31T00:02:49;8.32;;;1.60;;
37453;SDS011;23315;52.078;4.756;2023-07-31T00:05:15;7.45;;;1.80;;
37453;SDS011;23315;52.078;4.756;2023-07-31T00:07:40;10.23;;;1.90;;
37453;SDS011;23315;52.078;4.756;2023-07-31T00:10:06;15.93;;;2.60;;
37453;SDS011;23315;52.078;4.756;2023-07-31T00:12:32;15.30;;;3.05;;
37453;SDS011;23315;52.078;4.756;2023-07-31T00:14:57;8.00;;;3.58;;
37453;SDS011;23315;52.078;4.756;2023-07-31T00:17:23;10.15;;;4.50;;
37453;SDS011;23315;52.078;4.756;2023-07-31T00:19:48;15.23;;;4.15;;
37453;SDS011;23315;52.078;4.756;2023-07-31T00:22:15;11.60;;;4.82;;
37453;SDS011;23315;52.078;4.756;2023-07-31T00:24:41;22.15;;;6.22;;
37453;SDS011;23315;52.078;4.756;2023-07-31T00:27:06;16.63;;;6.03;;
37453;SDS011;23315;52.078;4.756;2023-07-31T00:29:32;13.60;;;5.22;;
37453;SDS011;23315;52.078;4.756;2023-07-31T00:31:57;12.77;;;5.22;;
37453;SDS011;23315;52.078;4.756;2023-07-31T00:34:23;28.45;;;7.80;;
37453;SDS011;23315;52.078;4.756;2023-07-31T00:36:48;18.33;;;6.03;;
37453;SDS011;23315;52.078;4.756;2023-07-31T00:39:13;15.40;;;5.05;;
37453;SDS011;23315;52.078;4.756;2023-07-31T00:41:39;16.50;;;4.68;;
37453;SDS011;23315;52.078;4.756;2023-07-31T00:44:04;17.52;;;6.05;;
37453;SDS011;23315;52.078;4.756;2023-07-31T00:46:29;14.40;;;4.78;;
37453;SDS011;23315;52.078;4.756;2023-07-31T00:48:55;19.02;;;5.07;;
37453;SDS011;23315;52.078;4.756;2023-07-31T00:51:21;17.23;;;5.10;;
37453;SDS011;23315;52.078;4.756;2023-07-31T00:53:46;17.55;;;5.30;;
37453;SDS011;23315;52.078;4.756;2023-07-31T00:56:12;15.60;;;5.18;;
37453;SDS011;23315;52.078;4.756;2023-07-31T00:58:38;24.25;;;6.28;;
37453;SDS011;23315;52.078;4.756;2023-07-31T01:01:04;14.15;;;5.00;;
37453;SDS011;23315;52.078;4.756;2023-07-31T01:03:29;19.33;;;6.10;;
37453;SDS011;23315;52.078;4.756;2023-07-31T01:05:58;19.65;;;5.90;;
37453;SDS011;23315;52.078;4.756;2023-07-31T01:08:54;18.88;;;5.03;;
37453;SDS011;23315;52.078;4.756;2023-07-31T01:11:28;22.80;;;7.00;;
37453;SDS011;23315;52.078;4.756;2023-07-31T01:13:55;18.90;;;6.40;;
37453;SDS011;23315;52.078;4.756;2023-07-31T01:16:21;25.92;;;6.78;;
37453;SDS011;23315;52.078;4.756;2023-07-31T01:18:46;21.42;;;7.32;;
37453;SDS011;23315;52.078;4.756;2023-07-31T01:26:39;23.35;;;8.40;;
37453;SDS011;23315;52.078;4.756;2023-07-31T01:29:10;25.75;;;7.60;;
37453;SDS011;23315;52.078;4.756;2023-07-31T01:31:43;27.27;;;9.32;;
37453;SDS011;23315;52.078;4.756;2023-07-31T01:34:11;20.85;;;6.72;;
37453;SDS011;23315;52.078;4.756;2023-07-31T01:36:38;29.52;;;7.50;;
37453;SDS011;23315;52.078;4.756;2023-07-31T01:39:03;21.63;;;6.95;;
37453;SDS011;23315;52.078;4.756;2023-07-31T01:41:29;21.27;;;7.05;;
37453;SDS011;23315;52.078;4.756;2023-07-31T01:43:54;20.05;;;7.07;;
37453;SDS011;23315;52.078;4.756;2023-07-31T01:46:20;31.52;;;8.88;;
37453;SDS011;23315;52.078;4.756;2023-07-31T01:48:45;30.92;;;9.82;;
37453;SDS011;23315;52.078;4.756;2023-07-31T01:51:10;26.33;;;8.95;;
37453;SDS011;23315;52.078;4.756;2023-07-31T01:53:36;21.50;;;7.60;;
37453;SDS011;23315;52.078;4.756;2023-07-31T01:56:02;24.35;;;8.32;;
37453;SDS011;23315;52.078;4.756;2023-07-31T01:58:27;19.17;;;7.07;;
37453;SDS011;23315;52.078;4.756;2023-07-31T02:00:53;26.40;;;7.93;;
37453;SDS011;23315;52.078;4.756;2023-07-31T02:03:18;22.95;;;7.03;;
37453;SDS011;23315;52.078;4.756;2023-07-31T02:05:44;24.67;;;6.97;;
37453;SDS011;23315;52.078;4.756;2023-07-31T02:08:10;25.13;;;7.72;;
37453;SDS011;23315;52.078;4.756;2023-07-31T02:10:36;31.52;;;9.73;;
37453;SDS011;23315;52.078;4.756;2023-07-31T02:13:01;30.63;;;9.73;;
37453;SDS011;23315;52.078;4.756;2023-07-31T02:15:29;34.35;;;10.88;;
37453;SDS011;23315;52.078;4.756;2023-07-31T02:17:55;35.60;;;9.73;;
37453;SDS011;23315;52.078;4.756;2023-07-31T02:20:20;29.30;;;9.27;;
37453;SDS011;23315;52.078;4.756;2023-07-31T02:22:45;22.73;;;8.43;;
37453;SDS011;23315;52.078;4.756;2023-07-31T02:25:11;36.47;;;9.73;;
37453;SDS011;23315;52.078;4.756;2023-07-31T02:27:36;34.42;;;9.93;;
37453;SDS011;23315;52.078;4.756;2023-07-31T02:30:02;39.92;;;10.05;;
37453;SDS011;23315;52.078;4.756;2023-07-31T02:32:27;31.77;;;9.27;;
37453;SDS011;23315;52.078;4.756;2023-07-31T02:34:52;32.00;;;9.50;;
37453;SDS011;23315;52.078;4.756;2023-07-31T02:37:18;32.00;;;10.32;;
37453;SDS011;23315;52.078;4.756;2023-07-31T02:39:43;33.75;;;10.07;;
37453;SDS011;23315;52.078;4.756;2023-07-31T02:42:09;41.03;;;10.07;;
37453;SDS011;23315;52.078;4.756;2023-07-31T02:44:34;31.52;;;9.25;;
37453;SDS011;23315;52.078;4.756;2023-07-31T02:46:59;30.65;;;9.35;;
37453;SDS011;23315;52.078;4.756;2023-07-31T02:49:25;33.22;;;9.55;;
37453;SDS011;23315;52.078;4.756;2023-07-31T02:51:50;28.55;;;10.32;;
37453;SDS011;23315;52.078;4.756;2023-07-31T02:54:15;32.05;;;10.23;;
37453;SDS011;23315;52.078;4.756;2023-07-31T02:56:41;22.08;;;8.55;;
37453;SDS011;23315;52.078;4.756;2023-07-31T02:59:06;35.35;;;11.65;;
37453;SDS011;23315;52.078;4.756;2023-07-31T03:01:32;31.55;;;10.57;;
37453;SDS011;23315;52.078;4.756;2023-07-31T03:03:57;41.00;;;12.45;;
37453;SDS011;23315;52.078;4.756;2023-07-31T03:06:22;29.95;;;10.27;;
37453;SDS011;23315;52.078;4.756;2023-07-31T03:08:48;23.95;;;8.30;;
37453;SDS011;23315;52.078;4.756;2023-07-31T03:11:13;30.58;;;9.63;;
37453;SDS011;23315;52.078;4.756;2023-07-31T03:13:39;32.50;;;9.57;;
37453;SDS011;23315;52.078;4.756;2023-07-31T03:16:04;33.88;;;9.88;;
37453;SDS011;23315;52.078;4.756;2023-07-31T03:18:29;28.42;;;9.43;;
37453;SDS011;23315;52.078;4.756;2023-07-31T03:20:55;29.95;;;8.70;;
37453;SDS011;23315;52.078;4.756;2023-07-31T03:23:20;25.48;;;8.57;;
37453;SDS011;23315;52.078;4.756;2023-07-31T03:25:56;28.17;;;9.70;;
37453;SDS011;23315;52.078;4.756;2023-07-31T03:28:22;34.88;;;9.77;;
37453;SDS011;23315;52.078;4.756;2023-07-31T03:30:47;34.25;;;9.55;;
37453;SDS011;23315;52.078;4.756;2023-07-31T03:33:13;32.28;;;9.90;;
37453;SDS011;23315;52.078;4.756;2023-07-31T03:35:38;33.03;;;9.95;;
37453;SDS011;23315;52.078;4.756;2023-07-31T03:38:03;27.13;;;9.60;;
37453;SDS011;23315;52.078;4.756;2023-07-31T03:40:29;25.80;;;8.07;;
37453;SDS011;23315;52.078;4.756;2023-07-31T03:42:54;30.05;;;9.55;;
37453;SDS011;23315;52.078;4.756;2023-07-31T03:45:20;26.02;;;8.65;;
37453;SDS011;23315;52.078;4.756;2023-07-31T03:47:45;30.67;;;10.13;;
37453;SDS011;23315;52.078;4.756;2023-07-31T03:50:10;30.33;;;10.77;;
37453;SDS011;23315;52.078;4.756;2023-07-31T03:52:36;37.08;;;11.20;;
37453;SDS011;23315;52.078;4.756;2023-07-31T03:55:01;28.15;;;9.75;;
37453;SDS011;23315;52.078;4.756;2023-07-31T03:57:26;27.73;;;7.93;;
37453;SDS011;23315;52.078;4.756;2023-07-31T03:59:52;35.70;;;9.13;;
37453;SDS011;23315;52.078;4.756;2023-07-31T04:02:17;27.92;;;11.00;;
37453;SDS011;23315;52.078;4.756;2023-07-31T04:04:43;30.35;;;9.50;;
37453;SDS011;23315;52.078;4.756;2023-07-31T04:07:09;34.60;;;10.23;;
37453;SDS011;23315;52.078;4.756;2023-07-31T04:09:34;25.27;;;9.23;;
37453;SDS011;23315;52.078;4.756;2023-07-31T04:11:59;35.60;;;9.45;;
37453;SDS011;23315;52.078;4.756;2023-07-31T04:14:25;29.35;;;8.30;;
37453;SDS011;23315;52.078;4.756;2023-07-31T04:16:50;26.08;;;8.23;;
37453;SDS011;23315;52.078;4.756;2023-07-31T04:19:16;29.25;;;8.48;;
37453;SDS011;23315;52.078;4.756;2023-07-31T04:21:41;21.73;;;7.45;;
37453;SDS011;23315;52.078;4.756;2023-07-31T04:24:07;27.33;;;8.90;;
37453;SDS011;23315;52.078;4.756;2023-07-31T04:26:32;21.27;;;8.07;;
37453;SDS011;23315;52.078;4.756;2023-07-31T04:28:58;18.38;;;7.60;;
37453;SDS011;23315;52.078;4.756;2023-07-31T04:31:23;27.23;;;7.70;;
37453;SDS011;23315;52.078;4.756;2023-07-31T04:33:49;23.48;;;9.13;;
37453;SDS011;23315;52.078;4.756;2023-07-31T04:36:14;35.10;;;9.82;;
37453;SDS011;23315;52.078;4.756;2023-07-31T04:38:40;29.77;;;9.57;;
37453;SDS011;23315;52.078;4.756;2023-07-31T04:41:06;28.55;;;8.85;;
37453;SDS011;23315;52.078;4.756;2023-07-31T04:43:31;20.42;;;6.80;;
37453;SDS011;23315;52.078;4.756;2023-07-31T04:45:57;17.55;;;5.45;;
37453;SDS011;23315;52.078;4.756;2023-07-31T04:48:23;18.73;;;4.82;;
37453;SDS011;23315;52.078;4.756;2023-07-31T04:50:48;14.68;;;5.32;;
37453;SDS011;23315;52.078;4.756;2023-07-31T04:53:14;17.23;;;5.07;;
37453;SDS011;23315;52.078;4.756;2023-07-31T04:55:39;12.38;;;4.50;;
37453;SDS011;23315;52.078;4.756;2023-07-31T04:58:05;14.18;;;4.72;;
37453;SDS011;23315;52.078;4.756;2023-07-31T05:00:30;15.73;;;4.10;;
37453;SDS011;23315;52.078;4.756;2023-07-31T05:02:55;11.23;;;3.92;;
37453;SDS011;23315;52.078;4.756;2023-07-31T05:05:21;14.50;;;4.28;;
37453;SDS011;23315;52.078;4.756;2023-07-31T05:07:46;12.82;;;3.92;;
37453;SDS011;23315;52.078;4.756;2023-07-31T05:10:11;13.48;;;3.63;;
37453;SDS011;23315;52.078;4.756;2023-07-31T05:12:37;9.00;;;3.47;;
37453;SDS011;23315;52.078;4.756;2023-07-31T05:15:03;10.63;;;2.80;;
37453;SDS011;23315;52.078;4.756;2023-07-31T05:17:28;10.95;;;3.47;;
37453;SDS011;23315;52.078;4.756;2023-07-31T05:19:57;5.15;;;2.20;;
37453;SDS011;23315;52.078;4.756;2023-07-31T05:22:22;8.50;;;2.58;;
37453;SDS011;23315;52.078;4.756;2023-07-31T05:24:51;7.72;;;1.92;;
37453;SDS011;23315;52.078;4.756;2023-07-31T05:27:16;8.23;;;2.38;;
37453;SDS011;23315;52.078;4.756;2023-07-31T05:29:43;11.82;;;2.95;;
37453;SDS011;23315;52.078;4.756;2023-07-31T05:32:09;14.57;;;3.13;;
37453;SDS011;23315;52.078;4.756;2023-07-31T05:34:34;9.80;;;2.15;;
37453;SDS011;23315;52.078;4.756;2023-07-31T05:37:03;11.57;;;2.85;;
37453;SDS011;23315;52.078;4.756;2023-07-31T05:39:29;7.93;;;2.35;;
37453;SDS011;23315;52.078;4.756;2023-07-31T05:41:54;12.32;;;2.38;;
37453;SDS011;23315;52.078;4.756;2023-07-31T05:44:19;12.23;;;2.17;;
37453;SDS011;23315;52.078;4.756;2023-07-31T05:46:45;15.30;;;3.15;;
37453;SDS011;23315;52.078;4.756;2023-07-31T05:49:10;12.77;;;2.40;;
37453;SDS011;23315;52.078;4.756;2023-07-31T05:51:35;10.18;;;2.17;;
37453;SDS011;23315;52.078;4.756;2023-07-31T05:54:01;12.07;;;3.35;;
37453;SDS011;23315;52.078;4.756;2023-07-31T05:56:26;13.57;;;2.50;;
37453;SDS011;23315;52.078;4.756;2023-07-31T05:58:52;11.30;;;2.60;;
37453;SDS011;23315;52.078;4.756;2023-07-31T06:01:17;16.58;;;2.78;;
37453;SDS011;23315;52.078;4.756;2023-07-31T06:03:43;19.25;;;3.70;;
37453;SDS011;23315;52.078;4.756;2023-07-31T06:06:08;21.83;;;3.85;;
37453;SDS011;23315;52.078;4.756;2023-07-31T06:08:34;21.48;;;4.10;;
37453;SDS011;23315;52.078;4.756;2023-07-31T06:10:59;16.45;;;3.83;;
37453;SDS011;23315;52.078;4.756;2023-07-31T06:13:25;14.65;;;3.45;;
37453;SDS011;23315;52.078;4.756;2023-07-31T06:15:50;21.95;;;4.53;;
37453;SDS011;23315;52.078;4.756;2023-07-31T06:18:16;20.27;;;4.45;;
37453;SDS011;23315;52.078;4.756;2023-07-31T06:20:41;26.40;;;5.18;;
37453;SDS011;23315;52.078;4.756;2023-07-31T06:23:07;23.75;;;4.75;;
37453;SDS011;23315;52.078;4.756;2023-07-31T06:25:32;20.88;;;5.53;;
37453;SDS011;23315;52.078;4.756;2023-07-31T06:27:58;27.88;;;4.07;;
37453;SDS011;23315;52.078;4.756;2023-07-31T06:30:23;11.45;;;3.83;;
37453;SDS011;23315;52.078;4.756;2023-07-31T06:32:49;16.50;;;3.28;;
37453;SDS011;23315;52.078;4.756;2023-07-31T06:35:14;8.98;;;2.78;;
37453;SDS011;23315;52.078;4.756;2023-07-31T06:37:40;16.02;;;3.75;;
37453;SDS011;23315;52.078;4.756;2023-07-31T06:40:08;18.67;;;4.05;;
37453;SDS011;23315;52.078;4.756;2023-07-31T06:42:34;21.98;;;4.22;;
37453;SDS011;23315;52.078;4.756;2023-07-31T06:45:00;20.75;;;4.85;;
37453;SDS011;23315;52.078;4.756;2023-07-31T06:47:26;17.52;;;4.03;;
37453;SDS011;23315;52.078;4.756;2023-07-31T06:49:51;17.67;;;4.78;;
37453;SDS011;23315;52.078;4.756;2023-07-31T06:52:16;19.05;;;4.32;;
37453;SDS011;23315;52.078;4.756;2023-07-31T06:54:42;22.08;;;4.80;;
37453;SDS011;23315;52.078;4.756;2023-07-31T06:57:07;23.88;;;4.22;;
37453;SDS011;23315;52.078;4.756;2023-07-31T06:59:33;19.33;;;4.18;;
37453;SDS011;23315;52.078;4.756;2023-07-31T07:01:58;20.15;;;4.32;;
37453;SDS011;23315;52.078;4.756;2023-07-31T07:04:24;16.23;;;3.65;;
37453;SDS011;23315;52.078;4.756;2023-07-31T07:06:49;18.83;;;4.20;;
37453;SDS011;23315;52.078;4.756;2023-07-31T07:09:14;17.13;;;4.28;;
37453;SDS011;23315;52.078;4.756;2023-07-31T07:11:40;19.70;;;3.75;;
37453;SDS011;23315;52.078;4.756;2023-07-31T07:14:05;19.88;;;3.67;;
37453;SDS011;23315;52.078;4.756;2023-07-31T07:16:31;15.38;;;3.42;;
37453;SDS011;23315;52.078;4.756;2023-07-31T07:18:56;13.05;;;3.28;;
37453;SDS011;23315;52.078;4.756;2023-07-31T07:21:22;21.13;;;3.33;;
37453;SDS011;23315;52.078;4.756;2023-07-31T07:23:48;11.57;;;2.15;;
37453;SDS011;23315;52.078;4.756;2023-07-31T07:26:13;11.90;;;2.38;;
37453;SDS011;23315;52.078;4.756;2023-07-31T07:28:38;14.18;;;2.72;;
37453;SDS011;23315;52.078;4.756;2023-07-31T07:31:04;16.58;;;3.00;;
37453;SDS011;23315;52.078;4.756;2023-07-31T07:33:29;11.13;;;2.72;;
37453;SDS011;23315;52.078;4.756;2023-07-31T07:35:55;16.55;;;3.75;;
37453;SDS011;23315;52.078;4.756;2023-07-31T07:38:20;22.05;;;5.22;;
37453;SDS011;23315;52.078;4.756;2023-07-31T07:40:46;21.17;;;5.47;;
37453;SDS011;23315;52.078;4.756;2023-07-31T07:43:15;20.30;;;3.92;;
37453;SDS011;23315;52.078;4.756;2023-07-31T07:45:41;17.77;;;4.03;;
37453;SDS011;23315;52.078;4.756;2023-07-31T07:48:06;18.88;;;3.90;;
37453;SDS011;23315;52.078;4.756;2023-07-31T07:50:32;16.67;;;4.18;;
37453;SDS011;23315;52.078;4.756;2023-07-31T07:52:58;19.75;;;4.30;;
37453;SDS011;23315;52.078;4.756;2023-07-31T07:55:23;16.95;;;3.55;;
37453;SDS011;23315;52.078;4.756;2023-07-31T07:57:49;17.52;;;3.83;;
37453;SDS011;23315;52.078;4.756;2023-07-31T08:00:15;15.40;;;4.07;;
37453;SDS011;23315;52.078;4.756;2023-07-31T08:02:42;11.90;;;3.10;;
37453;SDS011;23315;52.078;4.756;2023-07-31T08:05:07;19.77;;;3.92;;
37453;SDS011;23315;52.078;4.756;2023-07-31T08:07:33;10.35;;;4.45;;
37453;SDS011;23315;52.078;4.756;2023-07-31T08:09:58;18.45;;;3.55;;
37453;SDS011;23315;52.078;4.756;2023-07-31T08:12:24;19.15;;;4.32;;
37453;SDS011;23315;52.078;4.756;2023-07-31T08:14:49;19.17;;;4.13;;
37453;SDS011;23315;52.078;4.756;2023-07-31T08:17:15;22.23;;;4.72;;
37453;SDS011;23315;52.078;4.756;2023-07-31T08:19:40;14.95;;;3.45;;
37453;SDS011;23315;52.078;4.756;2023-07-31T08:22:06;19.70;;;4.20;;
37453;SDS011;23315;52.078;4.756;2023-07-31T08:24:31;25.30;;;6.00;;
37453;SDS011;23315;52.078;4.756;2023-07-31T08:26:57;15.75;;;4.43;;
37453;SDS011;23315;52.078;4.756;2023-07-31T08:29:22;22.88;;;4.18;;
37453;SDS011;23315;52.078;4.756;2023-07-31T08:31:47;20.05;;;5.57;;
37453;SDS011;23315;52.078;4.756;2023-07-31T08:34:13;25.13;;;4.63;;
37453;SDS011;23315;52.078;4.756;2023-07-31T08:36:38;20.73;;;4.25;;
37453;SDS011;23315;52.078;4.756;2023-07-31T08:39:04;20.60;;;4.88;;
37453;SDS011;23315;52.078;4.756;2023-07-31T08:41:29;23.80;;;5.30;;
37453;SDS011;23315;52.078;4.756;2023-07-31T08:43:54;24.17;;;5.57;;
37453;SDS011;23315;52.078;4.756;2023-07-31T08:46:20;18.20;;;4.10;;
37453;SDS011;23315;52.078;4.756;2023-07-31T08:48:46;23.60;;;4.28;;
37453;SDS011;23315;52.078;4.756;2023-07-31T08:51:13;26.17;;;4.60;;
37453;SDS011;23315;52.078;4.756;2023-07-31T08:53:39;15.07;;;3.95;;
37453;SDS011;23315;52.078;4.756;2023-07-31T08:56:04;17.20;;;3.97;;
37453;SDS011;23315;52.078;4.756;2023-07-31T08:58:31;18.70;;;3.90;;
37453;SDS011;23315;52.078;4.756;2023-07-31T09:00:57;20.58;;;4.22;;
37453;SDS011;23315;52.078;4.756;2023-07-31T09:03:24;17.35;;;4.25;;
37453;SDS011;23315;52.078;4.756;2023-07-31T09:05:50;18.75;;;5.00;;
37453;SDS011;23315;52.078;4.756;2023-07-31T09:08:19;20.77;;;4.55;;
37453;SDS011;23315;52.078;4.756;2023-07-31T09:10:46;21.08;;;3.95;;
37453;SDS011;23315;52.078;4.756;2023-07-31T09:13:12;16.33;;;4.55;;
37453;SDS011;23315;52.078;4.756;2023-07-31T09:15:38;16.73;;;3.80;;
37453;SDS011;23315;52.078;4.756;2023-07-31T09:18:05;24.45;;;4.85;;
37453;SDS011;23315;52.078;4.756;2023-07-31T09:20:32;22.23;;;4.75;;
37453;SDS011;23315;52.078;4.756;2023-07-31T09:23:06;24.52;;;5.00;;
37453;SDS011;23315;52.078;4.756;2023-07-31T09:25:33;17.67;;;4.45;;
37453;SDS011;23315;52.078;4.756;2023-07-31T09:28:05;16.50;;;4.00;;
37453;SDS011;23315;52.078;4.756;2023-07-31T09:30:43;17.10;;;3.08;;
37453;SDS011;23315;52.078;4.756;2023-07-31T09:33:13;16.15;;;3.65;;
37453;SDS011;23315;52.078;4.756;2023-07-31T09:35:38;22.77;;;3.85;;
37453;SDS011;23315;52.078;4.756;2023-07-31T09:38:06;19.00;;;3.40;;
37453;SDS011;23315;52.078;4.756;2023-07-31T09:40:34;23.23;;;4.93;;
37453;SDS011;23315;52.078;4.756;2023-07-31T09:43:02;20.02;;;4.68;;
37453;SDS011;23315;52.078;4.756;2023-07-31T09:45:28;15.20;;;3.80;;
37453;SDS011;23315;52.078;4.756;2023-07-31T09:47:54;17.13;;;4.25;;
37453;SDS011;23315;52.078;4.756;2023-07-31T09:50:21;17.20;;;3.97;;
37453;SDS011;23315;52.078;4.756;2023-07-31T09:52:47;17.35;;;4.45;;
37453;SDS011;23315;52.078;4.756;2023-07-31T09:55:13;16.75;;;3.80;;
37453;SDS011;23315;52.078;4.756;2023-07-31T09:57:39;14.93;;;4.47;;
37453;SDS011;23315;52.078;4.756;2023-07-31T10:00:08;13.52;;;3.33;;
37453;SDS011;23315;52.078;4.756;2023-07-31T10:02:37;14.90;;;2.78;;
37453;SDS011;23315;52.078;4.756;2023-07-31T10:05:03;18.27;;;3.85;;
37453;SDS011;23315;52.078;4.756;2023-07-31T10:07:30;18.77;;;4.63;;
37453;SDS011;23315;52.078;4.756;2023-07-31T10:09:59;16.70;;;3.72;;
37453;SDS011;23315;52.078;4.756;2023-07-31T10:12:26;16.10;;;3.25;;
37453;SDS011;23315;52.078;4.756;2023-07-31T10:14:55;16.48;;;3.88;;
37453;SDS011;23315;52.078;4.756;2023-07-31T10:17:22;21.20;;;4.30;;
37453;SDS011;23315;52.078;4.756;2023-07-31T10:19:48;20.52;;;5.18;;
37453;SDS011;23315;52.078;4.756;2023-07-31T10:22:14;21.05;;;4.28;;
37453;SDS011;23315;52.078;4.756;2023-07-31T10:24:40;14.75;;;3.65;;
37453;SDS011;23315;52.078;4.756;2023-07-31T10:27:07;19.52;;;4.05;;
37453;SDS011;23315;52.078;4.756;2023-07-31T10:29:33;14.68;;;3.67;;
37453;SDS011;23315;52.078;4.756;2023-07-31T10:31:59;17.23;;;3.10;;
37453;SDS011;23315;52.078;4.756;2023-07-31T10:34:25;14.10;;;3.33;;
37453;SDS011;23315;52.078;4.756;2023-07-31T10:37:00;18.23;;;4.07;;
37453;SDS011;23315;52.078;4.756;2023-07-31T10:39:56;13.48;;;2.95;;
37453;SDS011;23315;52.078;4.756;2023-07-31T10:45:06;11.93;;;2.83;;
37453;SDS011;23315;52.078;4.756;2023-07-31T10:47:36;13.02;;;3.17;;
37453;SDS011;23315;52.078;4.756;2023-07-31T10:50:13;16.83;;;2.65;;
37453;SDS011;23315;52.078;4.756;2023-07-31T10:52:39;13.95;;;3.88;;
37453;SDS011;23315;52.078;4.756;2023-07-31T10:56:05;12.40;;;3.00;;
37453;SDS011;23315;52.078;4.756;2023-07-31T10:58:10;15.82;;;3.35;;
37453;SDS011;23315;52.078;4.756;2023-07-31T11:00:37;9.35;;;2.78;;
37453;SDS011;23315;52.078;4.756;2023-07-31T11:03:07;19.17;;;3.67;;
37453;SDS011;23315;52.078;4.756;2023-07-31T11:05:53;14.05;;;3.78;;
37453;SDS011;23315;52.078;4.756;2023-07-31T11:08:25;16.92;;;3.17;;
37453;SDS011;23315;52.078;4.756;2023-07-31T11:13:26;14.00;;;3.15;;
37453;SDS011;23315;52.078;4.756;2023-07-31T11:15:51;13.23;;;2.92;;
37453;SDS011;23315;52.078;4.756;2023-07-31T11:18:17;11.48;;;2.65;;
37453;SDS011;23315;52.078;4.756;2023-07-31T11:20:43;15.05;;;3.33;;
37453;SDS011;23315;52.078;4.756;2023-07-31T11:23:09;10.25;;;3.22;;
37453;SDS011;23315;52.078;4.756;2023-07-31T11:25:35;10.40;;;3.20;;
37453;SDS011;23315;52.078;4.756;2023-07-31T11:28:05;11.77;;;3.15;;
37453;SDS011;23315;52.078;4.756;2023-07-31T11:30:31;13.02;;;3.20;;
37453;SDS011;23315;52.078;4.756;2023-07-31T11:32:57;12.05;;;2.72;;
37453;SDS011;23315;52.078;4.756;2023-07-31T11:35:22;14.10;;;3.10;;
37453;SDS011;23315;52.078;4.756;2023-07-31T11:37:48;15.30;;;3.13;;
37453;SDS011;23315;52.078;4.756;2023-07-31T11:40:14;18.70;;;4.05;;
37453;SDS011;23315;52.078;4.756;2023-07-31T11:42:39;11.70;;;3.15;;
37453;SDS011;23315;52.078;4.756;2023-07-31T11:45:06;14.32;;;4.13;;
37453;SDS011;23315;52.078;4.756;2023-07-31T11:47:35;13.32;;;3.88;;
37453;SDS011;23315;52.078;4.756;2023-07-31T11:50:04;15.80;;;3.38;;
37453;SDS011;23315;52.078;4.756;2023-07-31T11:52:32;12.77;;;2.60;;
37453;SDS011;23315;52.078;4.756;2023-07-31T11:55:00;19.27;;;4.22;;
37453;SDS011;23315;52.078;4.756;2023-07-31T11:57:26;16.55;;;4.90;;
37453;SDS011;23315;52.078;4.756;2023-07-31T11:59:52;15.35;;;4.25;;
37453;SDS011;23315;52.078;4.756;2023-07-31T12:02:17;15.15;;;3.90;;
37453;SDS011;23315;52.078;4.756;2023-07-31T12:04:43;15.70;;;3.33;;
37453;SDS011;23315;52.078;4.756;2023-07-31T12:07:09;19.98;;;3.30;;
37453;SDS011;23315;52.078;4.756;2023-07-31T12:09:34;14.52;;;3.55;;
37453;SDS011;23315;52.078;4.756;2023-07-31T12:12:00;13.52;;;3.97;;
37453;SDS011;23315;52.078;4.756;2023-07-31T12:14:26;16.80;;;3.45;;
37453;SDS011;23315;52.078;4.756;2023-07-31T12:16:56;11.80;;;2.83;;
37453;SDS011;23315;52.078;4.756;2023-07-31T12:19:25;18.63;;;4.43;;
37453;SDS011;23315;52.078;4.756;2023-07-31T12:21:55;14.27;;;3.40;;
37453;SDS011;23315;52.078;4.756;2023-07-31T12:24:35;14.32;;;4.32;;
37453;SDS011;23315;52.078;4.756;2023-07-31T12:27:08;11.95;;;4.05;;
37453;SDS011;23315;52.078;4.756;2023-07-31T12:29:36;16.50;;;3.63;;
37453;SDS011;23315;52.078;4.756;2023-07-31T12:32:01;14.10;;;3.33;;
37453;SDS011;23315;52.078;4.756;2023-07-31T12:34:26;12.27;;;3.38;;
37453;SDS011;23315;52.078;4.756;2023-07-31T12:36:53;13.77;;;3.38;;
37453;SDS011;23315;52.078;4.756;2023-07-31T12:39:18;15.70;;;3.38;;
37453;SDS011;23315;52.078;4.756;2023-07-31T12:41:44;14.13;;;3.17;;
37453;SDS011;23315;52.078;4.756;2023-07-31T12:44:09;16.27;;;3.40;;
37453;SDS011;23315;52.078;4.756;2023-07-31T12:46:35;14.98;;;3.47;;
37453;SDS011;23315;52.078;4.756;2023-07-31T12:49:00;16.20;;;3.35;;
37453;SDS011;23315;52.078;4.756;2023-07-31T12:51:25;14.70;;;3.35;;
37453;SDS011;23315;52.078;4.756;2023-07-31T12:53:51;14.93;;;3.67;;
37453;SDS011;23315;52.078;4.756;2023-07-31T12:56:16;14.02;;;4.07;;
37453;SDS011;23315;52.078;4.756;2023-07-31T12:58:42;18.65;;;3.80;;
37453;SDS011;23315;52.078;4.756;2023-07-31T13:01:08;25.05;;;4.25;;
37453;SDS011;23315;52.078;4.756;2023-07-31T13:03:33;13.65;;;3.17;;
37453;SDS011;23315;52.078;4.756;2023-07-31T13:05:59;18.98;;;4.15;;
37453;SDS011;23315;52.078;4.756;2023-07-31T13:08:24;21.45;;;4.35;;
37453;SDS011;23315;52.078;4.756;2023-07-31T13:10:49;15.05;;;3.00;;
37453;SDS011;23315;52.078;4.756;2023-07-31T13:13:15;8.93;;;3.47;;
37453;SDS011;23315;52.078;4.756;2023-07-31T13:15:40;12.50;;;3.63;;
37453;SDS011;23315;52.078;4.756;2023-07-31T13:18:06;9.35;;;2.53;;
37453;SDS011;23315;52.078;4.756;2023-07-31T13:20:31;15.43;;;3.78;;
37453;SDS011;23315;52.078;4.756;2023-07-31T13:22:57;12.20;;;3.20;;
37453;SDS011;23315;52.078;4.756;2023-07-31T13:25:22;11.00;;;3.80;;
37453;SDS011;23315;52.078;4.756;2023-07-31T13:27:47;9.65;;;2.65;;
37453;SDS011;23315;52.078;4.756;2023-07-31T13:30:13;14.55;;;3.78;;
37453;SDS011;23315;52.078;4.756;2023-07-31T13:32:38;9.98;;;3.63;;
37453;SDS011;23315;52.078;4.756;2023-07-31T13:35:07;9.85;;;2.63;;
37453;SDS011;23315;52.078;4.756;2023-07-31T13:37:33;10.50;;;3.28;;
37453;SDS011;23315;52.078;4.756;2023-07-31T13:39:59;9.13;;;2.38;;
37453;SDS011;23315;52.078;4.756;2023-07-31T13:42:24;11.05;;;3.00;;
37453;SDS011;23315;52.078;4.756;2023-07-31T13:44:50;13.82;;;3.38;;
37453;SDS011;23315;52.078;4.756;2023-07-31T13:47:15;14.13;;;3.35;;
37453;SDS011;23315;52.078;4.756;2023-07-31T13:49:40;17.02;;;3.67;;
37453;SDS011;23315;52.078;4.756;2023-07-31T13:52:08;11.52;;;2.17;;
37453;SDS011;23315;52.078;4.756;2023-07-31T13:54:33;8.40;;;2.65;;
37453;SDS011;23315;52.078;4.756;2023-07-31T13:56:59;9.20;;;2.67;;
37453;SDS011;23315;52.078;4.756;2023-07-31T13:59:25;10.30;;;2.13;;
37453;SDS011;23315;52.078;4.756;2023-07-31T14:01:50;10.45;;;3.00;;
37453;SDS011;23315;52.078;4.756;2023-07-31T14:04:15;11.25;;;1.88;;
37453;SDS011;23315;52.078;4.756;2023-07-31T14:06:42;8.45;;;1.90;;
37453;SDS011;23315;52.078;4.756;2023-07-31T14:09:08;7.88;;;1.75;;
37453;SDS011;23315;52.078;4.756;2023-07-31T14:11:33;9.18;;;2.08;;
37453;SDS011;23315;52.078;4.756;2023-07-31T14:13:59;7.07;;;1.80;;
37453;SDS011;23315;52.078;4.756;2023-07-31T14:16:26;10.00;;;2.28;;
37453;SDS011;23315;52.078;4.756;2023-07-31T14:18:52;11.10;;;3.28;;
37453;SDS011;23315;52.078;4.756;2023-07-31T14:21:18;7.00;;;2.63;;
37453;SDS011;23315;52.078;4.756;2023-07-31T14:23:44;10.55;;;2.10;;
37453;SDS011;23315;52.078;4.756;2023-07-31T14:26:10;18.52;;;3.42;;
37453;SDS011;23315;52.078;4.756;2023-07-31T14:28:35;8.35;;;2.45;;
37453;SDS011;23315;52.078;4.756;2023-07-31T14:31:01;9.25;;;2.45;;
37453;SDS011;23315;52.078;4.756;2023-07-31T14:33:26;14.18;;;3.38;;
37453;SDS011;23315;52.078;4.756;2023-07-31T14:35:51;9.00;;;3.13;;
37453;SDS011;23315;52.078;4.756;2023-07-31T14:38:17;14.07;;;3.60;;
37453;SDS011;23315;52.078;4.756;2023-07-31T14:40:43;11.38;;;3.22;;